עמוד ראשי
METAR-TAF:

METAR-TAF

שדות תעופה :

Ciudad del Carmen, מקסיקו

קו רוחב: 18-39N, קו אורך: 091-48W, גובה: 2מטר

תצפית מזג אוויר נוכחית

הדו"ח נערך לפני 43דקות, בשעה 20:45 UTC
רוח 2קשר מכיוון דרום
טמפרטורת 30 צלסיוס
לחות 70%
לחץ 1012 hPa
ראות: 11.3קילומטר
מעט עננים בגובה 1500רגל
עננים פזורים בגובה 7000רגל
עננים בינוניים בגובה 26000רגל

METAR: MMCE 252045Z 17002KT 7SM FEW015 SCT070 BKN260 30/24 A2988 RMK SLP115 57020 920 8/578

זמן: 16:28 (21:28 UTC)

תחזית

הדו"ח נערך לפני 4 שעות ו 0דקות, בשעה 17:28 UTC
תחזית בתוקף מ 25 ב 18 UTC עד 26 ב 18 UTC
רוח 10קשר מכיוון מערב/דרום-מערב
ראות: 9.7קילומטר
מעונן בגובה 2000רגל
באזור, גשם
זמנית מ -
25 ב 20 UTC עד 25 ב 24 UTC
ראות: 4.8קילומטר
עננים בינוניים בגובה 1000רגל , קומולונימבוס.
גשם
מ 26 ב 0300UTC
רוח קשר מכיוון צפון
ראות: 10קילומטר
עננים פזורים בגובה 1500רגל
עננים בינוניים בגובה 7000רגל
זמנית מ -
26 ב 12 UTC עד 26 ב 16 UTC
ראות: 4.8קילומטר
עננים בינוניים בגובה 1000רגל
אד,

TAF: MMCE 251728Z 2518/2618 25010KT 6SM VC RA OVC020 TEMPO 2520/2524 3SM RA BKN010CB FM260300 00000KT P6SM SCT015 BKN070 TEMPO 2612/2616 3SM BR BKN010

תצפיות ותחזיות מזג אוויר לגבי יותר מ- 4,000 שדות תעופה ברחבי העולם. דוחות METAR ו- TAF.

התחנות הזמינות מסומנות בנקודות צהובות ואדומות על גבי המפה.

העבר את העכבר לנקודה הצבעונית על מנת לראות את שם התחנה.

לאחר מכן, לחץ כדי לראות את תוכן ואת תחזיות מזג האוויר.

כדי לשנות את המפה: לחץ על הכפתורים הירוקים עם הפלוס השחור כדי להתקרב; על הכפתור הירוק עם המקף כדי להתרחק; או בחיצים הירוקים למפות סמוכות.


METAR-TAF: